createdAt,value
2023-03-06T00:01:25.517Z,100090.34
2023-03-06T00:06:30.078Z,100081.44
2023-03-06T00:11:33.256Z,100073.78
2023-03-06T00:16:36.431Z,100079.78
2023-03-06T00:21:42.966Z,100074.94
2023-03-06T00:26:46.077Z,100081.38
2023-03-06T00:31:49.330Z,100077.03
2023-03-06T00:36:54.208Z,100076.09
2023-03-06T00:41:57.356Z,100069.34
2023-03-06T00:47:00.504Z,100071.72
2023-03-06T00:52:05.867Z,100071.91
2023-03-06T00:57:09.383Z,100064.25
2023-03-06T01:02:12.572Z,100078.19
2023-03-06T01:07:17.116Z,100077.28
2023-03-06T01:12:22.767Z,100076.38
2023-03-06T01:17:26.696Z,100082.22
2023-03-06T01:22:31.226Z,100072.72
2023-03-06T01:27:34.372Z,100071.97
2023-03-06T01:32:37.566Z,100068.34
2023-03-06T01:37:42.230Z,100067.47
2023-03-06T01:42:46.787Z,100066.09
2023-03-06T01:47:50.043Z,100060.84
2023-03-06T01:52:57.116Z,100056.63
2023-03-06T01:58:04.803Z,100056.56
2023-03-06T02:03:11.793Z,100052.91
2023-03-06T02:08:19.072Z,100054.31
2023-03-06T02:13:22.200Z,100052.28
2023-03-06T02:18:25.337Z,100043.16
2023-03-06T02:23:34.880Z,100044.09
2023-03-06T02:28:40.058Z,100036.56
2023-03-06T02:33:42.941Z,100037.88
2023-03-06T02:38:50.424Z,100034.44
2023-03-06T02:43:55.045Z,100034.63
2023-03-06T02:48:58.254Z,100030.22
2023-03-06T02:54:01.332Z,100025.75
2023-03-06T02:59:06.149Z,100025.53
2023-03-06T03:04:09.937Z,100021.16
2023-03-06T03:09:13.170Z,100003.50
2023-03-06T03:14:17.934Z,100011.59
2023-03-06T03:19:21.243Z,100007.38
2023-03-06T03:24:24.408Z,99999.75
2023-03-06T03:29:29.099Z,99994.34
2023-03-06T03:34:32.258Z,99995.66
2023-03-06T03:39:35.464Z,99988.63
2023-03-06T03:44:40.019Z,99991.25
2023-03-06T03:49:43.172Z,99996.75
2023-03-06T03:54:46.323Z,100005.56
2023-03-06T03:59:50.914Z,100003.47
2023-03-06T04:04:54.068Z,99996.81
2023-03-06T04:09:57.182Z,100007.44
2023-03-06T04:15:01.780Z,100004.06
2023-03-06T04:20:05.704Z,100007.47
2023-03-06T04:25:09.571Z,100008.19
2023-03-06T04:30:14.803Z,99992.63
2023-03-06T04:35:17.685Z,99999.03
2023-03-06T04:40:23.410Z,99991.78
2023-03-06T04:45:29.877Z,99982.94
2023-03-06T04:50:33.231Z,99976.81
2023-03-06T04:55:36.534Z,99985.63
2023-03-06T05:00:41.141Z,99972.63
2023-03-06T05:05:44.849Z,99970.97
2023-03-06T05:10:48.213Z,99967.53
2023-03-06T05:15:53.195Z,99962.13
2023-03-06T05:20:59.583Z,99956.06
2023-03-06T05:26:02.765Z,99953.59
2023-03-06T05:31:08.314Z,99960.69
2023-03-06T05:36:11.608Z,99964.03
2023-03-06T05:41:15.567Z,99959.06
2023-03-06T05:46:20.170Z,99973.88
2023-03-06T05:51:23.352Z,99969.78
2023-03-06T05:56:26.500Z,99961.97
2023-03-06T06:01:31.080Z,99967.16
2023-03-06T06:06:34.227Z,99975.97
2023-03-06T06:11:37.367Z,99989.09
2023-03-06T06:16:42.203Z,99985.53
2023-03-06T06:21:45.901Z,99976.81
2023-03-06T06:26:51.360Z,99977.66
2023-03-06T06:31:56.244Z,99980.13
2023-03-06T06:36:59.464Z,99989.63
2023-03-06T06:42:28.176Z,99985.97
2023-03-06T06:47:27.257Z,99993.06
2023-03-06T06:52:30.492Z,99987.75
2023-03-06T06:57:33.631Z,99986.19
2023-03-06T07:02:38.156Z,99981.00
2023-03-06T07:07:41.281Z,99992.50
2023-03-06T07:12:44.909Z,99991.59
2023-03-06T07:17:50.351Z,99992.56
2023-03-06T07:22:53.556Z,99996.53
2023-03-06T07:27:57.229Z,100010.53
2023-03-06T07:33:02.001Z,100012.84
2023-03-06T07:38:05.264Z,100010.09
2023-03-06T07:43:18.829Z,100018.56
2023-03-06T07:48:24.094Z,100015.06
2023-03-06T07:53:27.368Z,100014.78
2023-03-06T07:58:30.557Z,100021.06
2023-03-06T08:03:35.577Z,100032.34
2023-03-06T08:08:40.573Z,100032.22
2023-03-06T08:13:44.364Z,100035.38
2023-03-06T08:18:48.930Z,100029.25
2023-03-06T08:23:52.612Z,100011.00
2023-03-06T08:28:56.906Z,100019.47
2023-03-06T08:34:03.358Z,100036.09
2023-03-06T08:39:07.793Z,100029.88
2023-03-06T08:44:11.446Z,100028.47
2023-03-06T08:49:16.124Z,100024.66
2023-03-06T08:54:19.395Z,100025.88
2023-03-06T08:59:22.638Z,100026.38
2023-03-06T09:04:27.304Z,100031.94
2023-03-06T09:09:30.575Z,100022.06
2023-03-06T09:14:33.892Z,100021.44
2023-03-06T09:19:39.038Z,100027.03
2023-03-06T09:24:42.284Z,100022.59
2023-03-06T09:29:45.564Z,100028.13
2023-03-06T09:34:50.337Z,100027.84
2023-03-06T09:39:53.571Z,100032.63
2023-03-06T09:45:00.288Z,100034.59
2023-03-06T09:50:24.008Z,100034.69
2023-03-06T09:55:28.645Z,100028.34
2023-03-06T10:00:37.282Z,100036.88
2023-03-06T10:05:46.207Z,100033.16
2023-03-06T10:10:55.363Z,100026.53
2023-03-06T10:16:07.803Z,100014.72
2023-03-06T10:21:26.547Z,100006.03
2023-03-06T10:26:37.313Z,100002.03
2023-03-06T10:31:44.873Z,100001.00
2023-03-06T10:36:49.562Z,99999.19
2023-03-06T10:41:53.005Z,99999.31
2023-03-06T10:46:56.588Z,99996.88
2023-03-06T10:52:05.668Z,100005.00
2023-03-06T10:57:27.222Z,100000.72
2023-03-06T11:02:33.107Z,100003.47
2023-03-06T11:07:38.053Z,100001.25
2023-03-06T11:12:42.630Z,99993.19
2023-03-06T11:17:55.119Z,99994.19
2023-03-06T11:23:04.563Z,99997.50
2023-03-06T11:28:14.833Z,99997.25
2023-03-06T11:33:26.924Z,99990.72
2023-03-06T11:38:41.945Z,99988.34
2023-03-06T11:43:54.269Z,99984.53
2023-03-06T11:49:02.815Z,99979.88
2023-03-06T11:54:07.557Z,99969.91
2023-03-06T11:59:41.389Z,99965.78
2023-03-06T12:05:03.507Z,99962.41
2023-03-06T12:10:19.990Z,99942.41
2023-03-06T12:15:35.663Z,99940.59
2023-03-06T12:20:51.865Z,99935.25
2023-03-06T12:26:05.232Z,99940.25
2023-03-06T12:31:35.803Z,99927.69
2023-03-06T12:36:49.633Z,99925.22
2023-03-06T12:42:11.487Z,99917.34
2023-03-06T12:47:23.188Z,99912.81
2023-03-06T12:52:30.531Z,99911.09
2023-03-06T12:57:35.418Z,99893.31
2023-03-06T13:03:05.645Z,99888.00
2023-03-06T13:08:34.228Z,99875.16
2023-03-06T13:13:45.397Z,99874.91
2023-03-06T13:18:52.236Z,99878.50
2023-03-06T13:24:06.067Z,99870.81
2023-03-06T13:29:42.672Z,99864.59
2023-03-06T13:34:49.333Z,99866.50
2023-03-06T13:40:27.540Z,99857.50
2023-03-06T13:45:35.585Z,99844.00
2023-03-06T13:50:42.699Z,99841.81
2023-03-06T13:55:53.798Z,99824.88
2023-03-06T14:01:08.565Z,99822.41
2023-03-06T14:06:48.956Z,99810.22
2023-03-06T14:11:56.254Z,99816.28
2023-03-06T14:17:00.103Z,99809.09
2023-03-06T14:22:05.212Z,99806.56
2023-03-06T14:27:19.489Z,99795.78
2023-03-06T14:32:23.977Z,99789.38
2023-03-06T14:37:29.160Z,99790.31
2023-03-06T14:42:33.783Z,99771.50
2023-03-06T14:47:38.684Z,99762.66
2023-03-06T14:52:42.070Z,99758.91
2023-03-06T14:57:49.079Z,99743.13
2023-03-06T15:02:54.079Z,99741.13
2023-03-06T15:08:01.276Z,99737.81
2023-03-06T15:13:20.106Z,99738.41
2023-03-06T15:18:35.709Z,99731.06
2023-03-06T15:23:40.630Z,99725.38
2023-03-06T15:28:45.000Z,99713.38
2023-03-06T15:34:16.915Z,99714.22
2023-03-06T15:39:32.795Z,99707.22
2023-03-06T15:44:37.364Z,99708.50
2023-03-06T15:49:42.124Z,99697.50
2023-03-06T15:54:45.290Z,99689.59
2023-03-06T15:59:50.268Z,99686.25
2023-03-06T16:04:53.853Z,99678.69
2023-03-06T16:09:57.007Z,99676.94
2023-03-06T16:15:03.048Z,99669.00
2023-03-06T16:20:09.122Z,99669.56
2023-03-06T16:25:12.446Z,99659.31
2023-03-06T16:30:19.407Z,99652.47
2023-03-06T16:35:22.817Z,99662.72
2023-03-06T16:40:28.060Z,99654.41
2023-03-06T16:45:32.735Z,99643.38
2023-03-06T16:50:39.784Z,99635.91
2023-03-06T16:55:43.023Z,99627.44
2023-03-06T17:00:47.578Z,99622.78
2023-03-06T17:05:50.732Z,99621.56
2023-03-06T17:10:53.907Z,99619.44
2023-03-06T17:15:59.583Z,99615.88
2023-03-06T17:21:02.794Z,99612.38
2023-03-06T17:26:07.259Z,99606.75
2023-03-06T17:31:16.502Z,99612.47
2023-03-06T17:36:20.462Z,99617.34
2023-03-06T17:41:24.700Z,99606.97
2023-03-06T17:46:29.435Z,99620.00
2023-03-06T17:51:32.649Z,99612.47
2023-03-06T17:56:36.019Z,99619.75
2023-03-06T18:01:40.623Z,99613.34
2023-03-06T18:06:43.797Z,99613.97
2023-03-06T18:11:46.943Z,99615.41
2023-03-06T18:16:51.492Z,99614.94
2023-03-06T18:21:54.645Z,99614.75
2023-03-06T18:26:57.802Z,99620.69
2023-03-06T18:32:02.540Z,99620.25
2023-03-06T18:37:05.918Z,99632.00
2023-03-06T18:42:09.721Z,99626.97
2023-03-06T18:47:14.251Z,99638.81
2023-03-06T18:52:17.419Z,99640.69
2023-03-06T18:57:20.649Z,99635.81
2023-03-06T19:02:25.373Z,99644.19
2023-03-06T19:07:28.591Z,99650.34
2023-03-06T19:12:34.082Z,99648.66
2023-03-06T19:17:38.907Z,99649.13
2023-03-06T19:22:42.073Z,99652.31
2023-03-06T19:27:46.222Z,99655.25
2023-03-06T19:32:50.866Z,99660.00
2023-03-06T19:37:54.300Z,99657.41
2023-03-06T19:42:57.423Z,99645.72
2023-03-06T19:48:03.397Z,99643.56
2023-03-06T19:53:07.483Z,99640.72
2023-03-06T19:58:11.297Z,99646.88
2023-03-06T20:03:15.864Z,99645.91
2023-03-06T20:08:19.001Z,99656.69
2023-03-06T20:13:22.185Z,99649.41
2023-03-06T20:18:26.773Z,99649.78
2023-03-06T20:23:30.141Z,99652.31
2023-03-06T20:28:33.611Z,99654.13
2023-03-06T20:33:38.459Z,99657.25
2023-03-06T20:38:42.233Z,99662.34
2023-03-06T20:43:45.786Z,99670.25
2023-03-06T20:48:51.522Z,99651.28
2023-03-06T20:53:54.892Z,99644.38
2023-03-06T20:58:58.475Z,99651.28
2023-03-06T21:04:04.555Z,99651.47
2023-03-06T21:09:08.186Z,99646.94
2023-03-06T21:14:13.849Z,99649.75
2023-03-06T21:19:19.382Z,99649.69
2023-03-06T21:24:22.528Z,99639.59
2023-03-06T21:29:25.721Z,99649.97
2023-03-06T21:34:30.306Z,99663.66
2023-03-06T21:39:33.440Z,99658.94
2023-03-06T21:44:36.616Z,99658.00
2023-03-06T21:49:41.362Z,99672.25
2023-03-06T21:54:44.526Z,99673.88
2023-03-06T21:59:47.724Z,99677.53
2023-03-06T22:04:52.922Z,99681.41
2023-03-06T22:09:56.369Z,99687.84
2023-03-06T22:14:59.505Z,99687.44
2023-03-06T22:20:04.575Z,99698.66
2023-03-06T22:25:09.012Z,99710.63
2023-03-06T22:30:13.379Z,99699.69
2023-03-06T22:35:18.109Z,99713.75
2023-03-06T22:40:21.339Z,99706.84
2023-03-06T22:45:24.510Z,99701.06
2023-03-06T22:50:29.097Z,99700.13
2023-03-06T22:55:32.319Z,99692.56
2023-03-06T23:00:35.437Z,99702.72
2023-03-06T23:05:43.439Z,99703.81
2023-03-06T23:10:46.588Z,99694.69
2023-03-06T23:15:49.787Z,99692.38
2023-03-06T23:20:54.385Z,99699.28
2023-03-06T23:26:00.668Z,99695.78
2023-03-06T23:31:08.031Z,99693.50
2023-03-06T23:36:14.793Z,99698.78
2023-03-06T23:41:19.912Z,99702.19
2023-03-06T23:46:23.137Z,99710.78
2023-03-06T23:51:27.720Z,99707.22
2023-03-06T23:56:30.863Z,99703.81
